Time;durP1;ratioP1;P1;durP2;ratioP2;P2;SDS_P1;SDS_P2;PMS_P1;PMS_P2;Temp;Humidity;BMP_temperature;BMP_pressure;BME280_temperature;BME280_humidity;BME280_pressure;Samples;Min_cycle;Max_cycle;Signal;HPM_P1;HPM_P2
2021/04/11 00:01:19;;;;;;;2.63;1.10;;;9.70;98.40;;;;;;4977121;28;20211;-92
2021/04/11 00:03:50;;;;;;;4.63;1.17;;;9.80;99.70;;;;;;4977011;28;20226;-93
2021/04/11 00:06:21;;;;;;;2.57;0.80;;;9.80;99.90;;;;;;4977176;28;20655;-92
2021/04/11 00:08:52;;;;;;;3.70;1.10;;;9.60;99.90;;;;;;4977866;28;20360;-91
2021/04/11 00:11:23;;;;;;;4.23;0.70;;;9.30;99.90;;;;;;4980840;28;20238;-92
2021/04/11 00:13:59;;;;;;;3.97;1.20;;;9.10;99.90;;;;;;4979721;28;20217;-92
2021/04/11 00:16:30;;;;;;;4.23;1.10;;;9.10;99.90;;;;;;4977895;28;20210;-90
2021/04/11 00:19:03;;;;;;;4.10;0.97;;;9.20;99.90;;;;;;4979826;28;20576;-91
2021/04/11 00:21:33;;;;;;;4.10;1.23;;;9.30;99.90;;;;;;4998801;28;20217;-93
2021/04/11 00:24:04;;;;;;;3.17;0.80;;;9.30;99.90;;;;;;5001663;28;20214;-90
2021/04/11 00:26:35;;;;;;;1.57;0.70;;;9.40;99.90;;;;;;4998096;28;20237;-92
2021/04/11 00:29:08;;;;;;;2.20;1.00;;;9.60;97.60;;;;;;4995991;28;20654;-91
2021/04/11 00:31:39;;;;;;;2.60;0.73;;;9.70;98.00;;;;;;4996059;28;20260;-91
2021/04/11 00:34:10;;;;;;;3.20;0.73;;;9.70;98.20;;;;;;4998143;28;20343;-91
2021/04/11 00:36:41;;;;;;;2.23;0.60;;;9.80;98.50;;;;;;5001638;28;20206;-90
2021/04/11 00:39:12;;;;;;;3.47;1.33;;;10.00;99.90;;;;;;5001074;28;20202;-90
2021/04/11 00:41:48;;;;;;;3.20;0.93;;;10.30;98.50;;;;;;4998175;28;20233;-90
2021/04/11 00:44:22;;;;;;;3.77;0.90;;;10.50;98.90;;;;;;4999935;28;20209;-89
2021/04/11 00:46:55;;;;;;;2.47;0.80;;;10.70;99.10;;;;;;4998936;28;20218;-89
2021/04/11 00:49:33;;;;;;;3.43;1.00;;;10.70;99.90;;;;;;4998689;28;20203;-90
2021/04/11 00:52:05;;;;;;;2.40;1.00;;;10.30;99.90;;;;;;5006365;28;20221;-90
2021/04/11 00:54:36;;;;;;;4.23;1.00;;;10.30;99.90;;;;;;5015202;28;20214;-90
2021/04/11 00:57:09;;;;;;;3.93;1.17;;;10.30;99.90;;;;;;5006366;28;20203;-90
2021/04/11 00:59:41;;;;;;;2.37;1.00;;;10.30;99.90;;;;;;4997553;28;20269;-90
2021/04/11 01:02:11;;;;;;;2.97;1.23;;;10.20;99.90;;;;;;4997400;28;20206;-90
2021/04/11 01:04:42;;;;;;;7.27;1.00;;;10.20;99.90;;;;;;4996739;28;20214;-91
2021/04/11 01:07:14;;;;;;;4.83;1.20;;;10.10;99.90;;;;;;5000066;28;20942;-91
2021/04/11 01:09:49;;;;;;;3.37;1.00;;;10.20;99.90;;;;;;4999932;28;20260;-91
2021/04/11 01:12:22;;;;;;;3.37;0.97;;;10.30;98.00;;;;;;4998717;28;20245;-91
2021/04/11 01:15:00;;;;;;;3.47;1.20;;;10.30;97.70;;;;;;4993476;28;20203;-91
2021/04/11 01:17:31;;;;;;;1.97;0.63;;;10.50;98.20;;;;;;4979103;28;20215;-90
2021/04/11 01:20:01;;;;;;;3.40;1.00;;;10.70;97.60;;;;;;4983860;28;20206;-91
2021/04/11 01:22:41;;;;;;;1.30;0.50;;;10.70;97.80;;;;;;5005906;28;20247;-93
2021/04/11 01:25:19;;;;;;;1.03;0.67;;;10.40;96.70;;;;;;5013628;28;20273;-93
2021/04/11 01:27:50;;;;;;;2.43;0.87;;;10.00;96.90;;;;;;5015649;28;20501;-92
2021/04/11 01:30:24;;;;;;;2.30;0.70;;;9.70;99.40;;;;;;5005408;28;20252;-92
2021/04/11 01:32:56;;;;;;;2.90;1.10;;;9.60;99.90;;;;;;5017212;28;20186;-93
2021/04/11 01:35:31;;;;;;;4.20;1.30;;;9.40;99.90;;;;;;5017799;28;20272;-92
2021/04/11 01:38:02;;;;;;;3.60;1.17;;;9.30;99.90;;;;;;5013889;28;20209;-92
2021/04/11 01:40:40;;;;;;;4.63;1.10;;;9.20;99.90;;;;;;5017706;28;20252;-91
2021/04/11 01:43:12;;;;;;;4.20;1.17;;;9.10;99.90;;;;;;5017307;28;20240;-92
2021/04/11 01:45:45;;;;;;;3.07;1.00;;;9.10;99.90;;;;;;5015947;28;20192;-92
2021/04/11 01:48:16;;;;;;;6.30;1.17;;;9.10;99.90;;;;;;5005839;28;20224;-91
2021/04/11 01:50:48;;;;;;;8.73;1.23;;;9.10;99.90;;;;;;5003912;28;20226;-91
2021/04/11 01:53:21;;;;;;;2.47;0.80;;;9.00;99.90;;;;;;5002687;28;20211;-91
2021/04/11 01:55:54;;;;;;;3.40;1.13;;;9.00;99.90;;;;;;5003236;28;20233;-91
2021/04/11 01:58:27;;;;;;;6.07;1.00;;;8.90;99.90;;;;;;5001619;28;20625;-91
2021/04/11 02:01:09;;;;;;;3.20;1.10;;;8.80;99.90;;;;;;5003241;28;20207;-91
2021/04/11 02:03:41;;;;;;;5.67;0.93;;;8.60;99.90;;;;;;5001787;28;20232;-91
2021/04/11 02:06:14;;;;;;;3.73;1.20;;;8.40;99.90;;;;;;5004534;28;20237;-92
2021/04/11 02:08:48;;;;;;;4.93;1.20;;;8.30;99.90;;;;;;5003815;28;20215;-92
2021/04/11 02:11:20;;;;;;;5.30;1.23;;;8.10;99.90;;;;;;5005898;28;20236;-91
2021/04/11 02:13:51;;;;;;;6.47;1.30;;;8.00;99.90;;;;;;5005266;28;20204;-93
2021/04/11 02:16:27;;;;;;;5.40;1.30;;;7.90;99.90;;;;;;5002673;28;20209;-93
2021/04/11 02:19:03;;;;;;;4.60;1.47;;;7.80;99.90;;;;;;5000276;28;20210;-92
2021/04/11 02:21:35;;;;;;;5.53;1.20;;;7.70;99.90;;;;;;4999926;28;20206;-92
2021/04/11 02:24:08;;;;;;;6.90;1.30;;;7.60;99.90;;;;;;5000826;28;20257;-93
2021/04/11 02:26:41;;;;;;;6.83;1.40;;;7.50;99.90;;;;;;4998700;28;20276;-92
2021/04/11 02:29:16;;;;;;;5.30;1.03;;;7.50;99.90;;;;;;4998990;28;20215;-92
2021/04/11 02:31:46;;;;;;;3.97;0.97;;;7.50;99.90;;;;;;4998079;28;20255;-92
2021/04/11 02:34:24;;;;;;;5.40;1.53;;;7.60;99.90;;;;;;4998302;28;20206;-92
2021/04/11 02:36:58;;;;;;;7.83;1.50;;;7.40;99.90;;;;;;4997083;28;20670;-91
2021/04/11 02:39:30;;;;;;;3.20;1.13;;;7.40;99.90;;;;;;4998692;28;20210;-92
2021/04/11 02:42:06;;;;;;;6.37;1.23;;;7.40;99.90;;;;;;4998410;28;20622;-91
2021/04/11 02:44:38;;;;;;;7.37;1.60;;;7.30;99.90;;;;;;4999097;28;20675;-91
2021/04/11 02:47:09;;;;;;;7.40;1.67;;;7.20;99.90;;;;;;4996177;28;20305;-91
2021/04/11 02:49:40;;;;;;;7.03;1.33;;;7.10;99.90;;;;;;4998244;28;20212;-91
2021/04/11 02:52:21;;;;;;;3.97;1.00;;;7.00;99.90;;;;;;4999866;28;20316;-91
2021/04/11 02:54:51;;;;;;;6.83;1.57;;;7.00;99.90;;;;;;4997053;28;20685;-93
2021/04/11 02:57:24;;;;;;;7.60;1.53;;;6.90;99.90;;;;;;4998408;28;20218;-92
2021/04/11 02:59:55;;;;;;;2.43;1.10;;;6.80;99.90;;;;;;5002087;28;20225;-91
2021/04/11 03:02:26;;;;;;;3.60;0.90;;;6.80;99.90;;;;;;4999688;28;20280;-92
2021/04/11 03:04:57;;;;;;;4.20;0.90;;;6.70;99.90;;;;;;5002801;28;20266;-91
2021/04/11 03:07:32;;;;;;;4.70;1.20;;;6.70;99.90;;;;;;5000001;28;20210;-92
2021/04/11 03:10:07;;;;;;;4.80;1.40;;;6.70;99.90;;;;;;5001817;28;20287;-92
2021/04/11 03:12:40;;;;;;;6.00;1.57;;;6.60;99.90;;;;;;5001113;28;20278;-93
2021/04/11 03:15:14;;;;;;;5.73;1.33;;;6.70;99.90;;;;;;5003942;28;20238;-93
2021/04/11 03:17:46;;;;;;;6.03;1.60;;;6.60;99.90;;;;;;5004555;28;20241;-92
2021/04/11 03:20:20;;;;;;;3.80;1.40;;;6.60;99.90;;;;;;5003423;28;20203;-91
2021/04/11 03:22:54;;;;;;;2.80;1.20;;;6.50;99.90;;;;;;5003783;28;20266;-92
2021/04/11 03:25:27;;;;;;;5.60;1.40;;;6.50;99.90;;;;;;5000700;28;20213;-92
2021/04/11 03:28:06;;;;;;;5.20;1.57;;;6.40;99.90;;;;;;4999610;28;20213;-92
2021/04/11 03:30:41;;;;;;;5.13;1.40;;;6.30;99.90;;;;;;4985181;28;20205;-92
2021/04/11 03:33:15;;;;;;;3.00;1.23;;;6.30;99.90;;;;;;5000395;28;20315;-92
2021/04/11 03:35:49;;;;;;;2.63;1.30;;;6.20;99.90;;;;;;4999751;28;20581;-92
2021/04/11 03:38:23;;;;;;;2.70;1.00;;;6.20;99.90;;;;;;4996970;28;20237;-92
2021/04/11 03:40:58;;;;;;;4.27;1.37;;;6.10;99.90;;;;;;4997327;28;20722;-91
2021/04/11 03:43:35;;;;;;;4.60;1.67;;;6.10;99.90;;;;;;4997606;28;20242;-91
2021/04/11 03:46:14;;;;;;;5.67;1.77;;;6.00;99.90;;;;;;5003411;28;20229;-91
2021/04/11 03:48:48;;;;;;;1.87;1.03;;;5.90;99.90;;;;;;5010912;28;20206;-91
2021/04/11 03:51:23;;;;;;;4.00;1.17;;;5.90;99.90;;;;;;5012030;28;20237;-92
2021/04/11 03:53:59;;;;;;;4.10;1.20;;;5.80;99.90;;;;;;5003618;28;20214;-92
2021/04/11 03:56:37;;;;;;;3.00;1.03;;;5.70;99.90;;;;;;5000435;28;20312;-92
2021/04/11 03:59:13;;;;;;;4.67;1.07;;;5.60;99.90;;;;;;4998196;28;20261;-91
2021/04/11 04:01:47;;;;;;;2.63;1.13;;;5.50;99.90;;;;;;4997875;28;20233;-90
2021/04/11 04:04:20;;;;;;;2.80;1.07;;;5.40;99.90;;;;;;4998615;28;20206;-91
2021/04/11 04:07:14;;;;;;;4.03;1.20;;;5.30;99.90;;;;;;4997035;28;20210;-91
2021/04/11 04:09:50;;;;;;;3.17;1.10;;;5.20;99.90;;;;;;4996648;28;20216;-91
2021/04/11 04:15:03;;;;;;;2.87;1.07;;;5.10;99.90;;;;;;4977134;28;20227;-89
2021/04/11 04:17:42;;;;;;;2.87;1.20;;;5.10;99.90;;;;;;4977038;28;20226;-90
2021/04/11 04:20:22;;;;;;;3.70;1.20;;;5.00;99.90;;;;;;4978796;28;20206;-91
2021/04/11 04:23:06;;;;;;;2.67;1.20;;;4.90;99.90;;;;;;4976561;28;20223;-91
2021/04/11 04:25:48;;;;;;;5.43;1.57;;;4.90;99.90;;;;;;4976764;28;20210;-90
2021/04/11 04:28:53;;;;;;;4.30;1.23;;;4.80;99.90;;;;;;4976857;28;20217;-91
2021/04/11 04:31:38;;;;;;;5.27;1.60;;;4.80;99.90;;;;;;4984118;28;20231;-91
2021/04/11 04:34:22;;;;;;;4.57;1.57;;;4.70;99.90;;;;;;4985727;28;20217;-91
2021/04/11 04:37:06;;;;;;;3.40;1.40;;;4.60;99.90;;;;;;4980358;28;20273;-91
2021/04/11 04:39:44;;;;;;;2.57;1.30;;;4.50;99.90;;;;;;4981938;28;20240;-91
2021/04/11 04:42:20;;;;;;;5.07;1.40;;;4.50;99.90;;;;;;4982593;28;20277;-91
2021/04/11 04:45:02;;;;;;;4.67;1.67;;;4.40;99.90;;;;;;4975653;28;20221;-91
2021/04/11 04:47:52;;;;;;;5.73;1.43;;;4.40;99.90;;;;;;4975752;28;20556;-91
2021/04/11 04:50:28;;;;;;;6.00;1.67;;;4.40;99.90;;;;;;4976282;28;20265;-91
2021/04/11 04:53:12;;;;;;;5.97;1.40;;;4.30;99.90;;;;;;4976796;28;20258;-92
2021/04/11 04:55:48;;;;;;;4.83;1.30;;;4.30;99.90;;;;;;4976742;28;20210;-91
2021/04/11 04:58:26;;;;;;;4.83;1.87;;;4.30;99.90;;;;;;4975005;28;20214;-91
2021/04/11 05:00:59;;;;;;;2.93;1.70;;;4.20;99.90;;;;;;4979707;28;20211;-91
2021/04/11 05:03:38;;;;;;;8.23;2.40;;;4.20;99.90;;;;;;4980239;28;20658;-91
2021/04/11 05:06:14;;;;;;;5.57;1.73;;;4.10;99.90;;;;;;4980002;28;20264;-94
2021/04/11 05:08:54;;;;;;;3.53;1.30;;;4.10;99.90;;;;;;4980116;28;20210;-91
2021/04/11 05:11:28;;;;;;;4.53;1.77;;;4.10;99.90;;;;;;4980710;28;20230;-92
2021/04/11 05:14:04;;;;;;;5.90;2.10;;;4.10;99.90;;;;;;4980546;28;20213;-92
2021/04/11 05:16:39;;;;;;;4.90;1.70;;;4.00;99.90;;;;;;4979267;28;20209;-93
2021/04/11 05:19:15;;;;;;;5.10;2.07;;;4.00;99.90;;;;;;4980710;28;20580;-92
2021/04/11 05:21:48;;;;;;;6.33;4.03;;;4.00;99.90;;;;;;4980324;28;20206;-93
2021/04/11 05:24:22;;;;;;;5.77;2.20;;;3.80;99.90;;;;;;4981539;28;20210;-93
2021/04/11 05:27:00;;;;;;;4.67;2.53;;;3.90;99.90;;;;;;4982475;28;20279;-93
2021/04/11 05:29:40;;;;;;;5.90;2.03;;;3.90;99.90;;;;;;4972283;28;20211;-92
2021/04/11 05:32:13;;;;;;;6.17;2.60;;;3.80;99.90;;;;;;4963047;28;20259;-92
2021/04/11 05:34:47;;;;;;;3.67;2.20;;;3.80;99.90;;;;;;4960394;29;20215;-92
2021/04/11 05:37:34;;;;;;;4.53;2.20;;;3.80;99.90;;;;;;4960564;28;20203;-92
2021/04/11 05:40:11;;;;;;;8.30;2.23;;;3.80;99.90;;;;;;4961277;28;20231;-91
2021/04/11 05:42:51;;;;;;;4.90;2.17;;;3.80;99.90;;;;;;4961634;28;20512;-91
2021/04/11 05:45:25;;;;;;;4.13;2.60;;;3.70;99.90;;;;;;4965785;28;20560;-92
2021/04/11 05:48:08;;;;;;;7.93;2.27;;;3.70;99.90;;;;;;4971469;29;20211;-91
2021/04/11 05:50:46;;;;;;;2.90;1.93;;;3.70;99.90;;;;;;4976172;28;20263;-90
2021/04/11 05:53:20;;;;;;;6.87;2.80;;;3.60;99.90;;;;;;4970943;28;20231;-90
2021/04/11 05:55:56;;;;;;;2.03;1.80;;;3.60;99.90;;;;;;4965526;28;20703;-91
2021/04/11 05:58:31;;;;;;;7.27;2.03;;;3.60;99.90;;;;;;4966856;28;20199;-90
2021/04/11 06:01:09;;;;;;;4.93;2.07;;;3.70;99.90;;;;;;4966193;28;20235;-91
2021/04/11 06:03:47;;;;;;;5.83;1.90;;;3.70;99.90;;;;;;4962280;28;20222;-92
2021/04/11 06:06:23;;;;;;;4.50;1.63;;;3.70;99.90;;;;;;4961286;28;20210;-91
2021/04/11 06:09:00;;;;;;;6.87;2.10;;;3.80;99.90;;;;;;4971169;28;20199;-92
2021/04/11 06:11:39;;;;;;;6.13;2.20;;;3.80;99.90;;;;;;4996501;28;20234;-92
2021/04/11 06:14:18;;;;;;;5.37;2.00;;;3.80;99.90;;;;;;4997624;28;20286;-91
2021/04/11 06:16:52;;;;;;;5.73;2.17;;;3.90;99.90;;;;;;4990630;28;20215;-91
2021/04/11 06:19:24;;;;;;;4.57;1.80;;;3.90;99.90;;;;;;4982644;28;20207;-92
2021/04/11 06:22:04;;;;;;;5.80;2.00;;;3.90;99.90;;;;;;4979041;28;20207;-93
2021/04/11 06:24:45;;;;;;;4.73;2.30;;;4.00;99.90;;;;;;4979943;28;20235;-92
2021/04/11 06:27:40;;;;;;;5.03;2.07;;;4.00;99.90;;;;;;4980395;28;20211;-92
2021/04/11 06:30:16;;;;;;;4.43;2.10;;;4.00;99.90;;;;;;4979028;28;20207;-92
2021/04/11 06:32:51;;;;;;;3.93;2.07;;;4.10;99.90;;;;;;4981807;28;20289;-92
2021/04/11 06:35:27;;;;;;;7.10;2.13;;;4.10;99.90;;;;;;4982884;28;20651;-94
2021/04/11 06:38:03;;;;;;;9.37;2.20;;;4.10;99.90;;;;;;4980284;28;20211;-92
2021/04/11 06:41:11;;;;;;;6.60;2.60;;;4.00;99.90;;;;;;4982277;28;20217;-91
2021/04/11 06:44:08;;;;;;;4.67;1.90;;;4.00;99.90;;;;;;4983027;28;20211;-91
2021/04/11 06:46:51;;;;;;;6.40;2.43;;;3.90;99.90;;;;;;4981351;28;20219;-91
2021/04/11 06:49:39;;;;;;;9.77;2.23;;;3.90;99.90;;;;;;4984606;28;20203;-91
2021/04/11 06:52:32;;;;;;;7.13;2.70;;;3.80;99.90;;;;;;4979595;28;20227;-91
2021/04/11 06:55:35;;;;;;;5.47;2.30;;;3.80;99.90;;;;;;4985951;28;20233;-91
2021/04/11 06:58:16;;;;;;;5.17;1.70;;;3.80;99.90;;;;;;4993381;28;20214;-91
2021/04/11 07:01:04;;;;;;;5.77;2.10;;;3.70;99.90;;;;;;4988850;28;20207;-92
2021/04/11 07:04:34;;;;;;;6.83;2.23;;;3.70;99.90;;;;;;4998734;28;20199;-92
2021/04/11 07:07:52;;;;;;;8.70;2.30;;;3.60;99.90;;;;;;4952332;28;20199;-91
2021/04/11 07:10:44;;;;;;;6.73;2.27;;;3.50;99.90;;;;;;4959219;28;20203;-91
2021/04/11 07:13:52;;;;;;;5.33;2.67;;;3.40;99.90;;;;;;4996883;28;20275;-92
2021/04/11 07:16:47;;;;;;;5.90;2.20;;;3.40;99.90;;;;;;4997513;28;20199;-92
2021/04/11 07:19:58;;;;;;;7.80;3.00;;;3.40;99.90;;;;;;4978703;28;20207;-92
2021/04/11 07:23:16;;;;;;;8.27;2.80;;;3.30;99.90;;;;;;4978702;28;20301;-92
2021/04/11 07:26:14;;;;;;;10.50;2.80;;;3.20;99.90;;;;;;4978092;28;20711;-92
2021/04/11 07:28:55;;;;;;;4.23;2.30;;;3.20;99.90;;;;;;4981095;28;20242;-92
2021/04/11 07:31:45;;;;;;;5.17;1.83;;;3.10;99.90;;;;;;4981445;28;20222;-92
2021/04/11 07:34:45;;;;;;;4.70;2.30;;;3.10;99.90;;;;;;4983487;28;20211;-92
2021/04/11 07:37:32;;;;;;;8.13;2.50;;;3.00;99.90;;;;;;4979595;28;20582;-93
2021/04/11 07:40:15;;;;;;;8.80;2.53;;;3.00;99.90;;;;;;4970367;28;20216;-92
2021/04/11 07:43:05;;;;;;;10.57;3.13;;;3.00;99.90;;;;;;4978316;28;20331;-91
2021/04/11 07:46:01;;;;;;;13.07;3.67;;;3.00;99.90;;;;;;4983219;28;20223;-91
2021/04/11 07:49:05;;;;;;;4.70;2.50;;;3.00;99.90;;;;;;4978301;28;20289;-92
2021/04/11 07:51:56;;;;;;;10.17;2.43;;;2.90;99.90;;;;;;4975774;28;20238;-92
2021/04/11 07:54:44;;;;;;;6.80;3.20;;;2.90;99.90;;;;;;4980622;28;20234;-91
2021/04/11 07:58:02;;;;;;;7.60;2.50;;;2.80;99.90;;;;;;4976632;28;20211;-91
2021/04/11 08:01:00;;;;;;;7.60;2.10;;;2.80;99.90;;;;;;4976451;28;20203;-91
2021/04/11 08:03:54;;;;;;;7.67;2.10;;;2.70;99.90;;;;;;4971184;28;20207;-91
2021/04/11 08:06:57;;;;;;;8.00;2.27;;;2.70;99.90;;;;;;4977290;28;20257;-92
2021/04/11 08:09:39;;;;;;;6.80;2.37;;;2.60;99.90;;;;;;4967630;28;20210;-91
2021/04/11 08:12:41;;;;;;;7.03;1.87;;;2.60;99.90;;;;;;4978830;28;20238;-93
2021/04/11 08:15:20;;;;;;;3.47;1.77;;;2.60;99.90;;;;;;4976003;28;20219;-92
2021/04/11 08:18:36;;;;;;;7.40;2.03;;;2.60;99.90;;;;;;4977318;28;20206;-93
2021/04/11 08:21:23;;;;;;;6.90;2.70;;;2.60;99.90;;;;;;4965058;28;20207;-92
2021/04/11 08:24:22;;;;;;;4.53;2.10;;;2.60;99.90;;;;;;4984638;28;20213;-92
2021/04/11 08:27:30;;;;;;;6.90;2.17;;;2.60;99.90;;;;;;4975785;28;20206;-92
2021/04/11 08:30:23;;;;;;;6.30;2.03;;;2.50;99.90;;;;;;4994832;28;20234;-91
2021/04/11 08:33:28;;;;;;;4.13;2.20;;;2.50;99.90;;;;;;4993025;28;20235;-93
2021/04/11 08:36:22;;;;;;;5.43;2.17;;;2.40;99.90;;;;;;4982511;28;20229;-92
2021/04/11 08:39:28;;;;;;;5.97;2.73;;;2.30;99.90;;;;;;4978627;28;20676;-92
2021/04/11 08:42:20;;;;;;;11.17;3.80;;;2.20;99.90;;;;;;4959400;28;20236;-91
2021/04/11 08:45:11;;;;;;;9.70;5.77;;;2.10;99.90;;;;;;4980253;28;20286;-93
2021/04/11 08:47:49;;;;;;;11.80;6.67;;;2.20;99.90;;;;;;4976515;28;20222;-91
2021/04/11 08:50:25;;;;;;;12.13;6.90;;;2.10;99.90;;;;;;4977774;28;20206;-92
2021/04/11 08:53:09;;;;;;;9.00;6.10;;;2.10;99.90;;;;;;4978864;28;20257;-91
2021/04/11 08:55:44;;;;;;;11.13;5.67;;;2.10;99.90;;;;;;4980603;28;20286;-92
2021/04/11 08:58:35;;;;;;;11.30;6.77;;;2.10;99.90;;;;;;4978080;28;20245;-92
2021/04/11 09:01:30;;;;;;;11.70;5.70;;;2.10;99.90;;;;;;4979412;28;20293;-92
2021/04/11 09:04:19;;;;;;;10.83;5.00;;;2.10;99.90;;;;;;4978991;28;20265;-92
2021/04/11 09:07:25;;;;;;;9.20;4.00;;;1.90;99.90;;;;;;4976595;28;20263;-92
2021/04/11 09:10:08;;;;;;;5.20;2.73;;;1.90;99.90;;;;;;4976374;28;20730;-92
2021/04/11 09:12:47;;;;;;;4.03;2.30;;;1.80;99.90;;;;;;4978036;28;20622;-92
2021/04/11 09:15:31;;;;;;;4.83;2.60;;;1.80;99.90;;;;;;4978654;28;20210;-92
2021/04/11 09:18:31;;;;;;;5.20;2.00;;;1.70;99.90;;;;;;4977192;28;20219;-92
2021/04/11 09:21:28;;;;;;;5.87;2.20;;;1.70;99.90;;;;;;4981238;28;20218;-92
2021/04/11 09:24:10;;;;;;;3.03;1.90;;;1.70;99.90;;;;;;4980845;28;20203;-90
2021/04/11 09:27:01;;;;;;;5.70;2.20;;;1.70;99.90;;;;;;4978514;28;20210;-93
2021/04/11 09:29:46;;;;;;;3.97;2.00;;;1.70;99.90;;;;;;4975544;28;20272;-93
2021/04/11 09:32:34;;;;;;;5.40;2.30;;;1.70;99.90;;;;;;4975432;28;20238;-93
2021/04/11 09:35:18;;;;;;;3.30;1.80;;;1.60;99.90;;;;;;4946413;28;20214;-92
2021/04/11 09:38:07;;;;;;;3.30;1.97;;;1.60;99.90;;;;;;4977050;28;20288;-92
2021/04/11 09:40:55;;;;;;;6.37;2.07;;;1.60;99.90;;;;;;4983734;28;20222;-91
2021/04/11 09:43:56;;;;;;;6.47;2.03;;;1.60;99.90;;;;;;4982277;28;20218;-92
2021/04/11 09:46:48;;;;;;;6.83;2.13;;;1.60;99.90;;;;;;4977493;28;20206;-92
2021/04/11 09:49:38;;;;;;;3.60;1.90;;;1.50;99.90;;;;;;4980058;28;20295;-91
2021/04/11 09:52:35;;;;;;;4.47;1.80;;;1.50;99.90;;;;;;4982762;28;20234;-91
2021/04/11 09:55:14;;;;;;;3.00;1.50;;;1.40;99.90;;;;;;4981641;28;20218;-91
2021/04/11 09:58:07;;;;;;;2.47;1.50;;;1.40;99.90;;;;;;4980043;28;20224;-91
2021/04/11 10:00:39;;;;;;;3.60;1.70;;;1.30;99.90;;;;;;4978851;28;20223;-91
2021/04/11 10:03:23;;;;;;;5.97;1.70;;;1.30;99.90;;;;;;4979283;28;20211;-91
2021/04/11 10:06:05;;;;;;;2.90;1.20;;;1.30;99.90;;;;;;4979280;28;20221;-92
2021/04/11 10:08:51;;;;;;;3.60;1.43;;;1.30;99.90;;;;;;4979967;28;20207;-92
2021/04/11 10:11:34;;;;;;;4.97;1.53;;;1.30;99.90;;;;;;4980023;28;20207;-93
2021/04/11 10:14:41;;;;;;;4.57;1.63;;;1.20;99.90;;;;;;4980003;28;20313;-90
2021/04/11 10:17:23;;;;;;;3.10;1.50;;;1.10;99.90;;;;;;4921182;28;20223;-91
2021/04/11 10:20:01;;;;;;;3.47;1.80;;;1.10;99.90;;;;;;4975391;28;20211;-91
2021/04/11 10:22:54;;;;;;;4.03;1.70;;;1.10;99.90;;;;;;4978738;28;20249;-91
2021/04/11 10:25:39;;;;;;;8.27;1.87;;;1.10;99.90;;;;;;4978857;28;20269;-91
2021/04/11 10:28:27;;;;;;;4.00;1.80;;;1.10;99.90;;;;;;4976497;28;20207;-91
2021/04/11 10:31:12;;;;;;;5.23;1.73;;;1.10;99.90;;;;;;4977629;28;20571;-91
2021/04/11 10:33:49;;;;;;;7.87;1.80;;;1.10;99.90;;;;;;4978460;28;20312;-92
2021/04/11 10:36:29;;;;;;;4.63;1.77;;;1.00;99.90;;;;;;4978686;28;20206;-91
2021/04/11 10:39:07;;;;;;;3.23;1.70;;;1.10;99.90;;;;;;4979641;28;20218;-92
2021/04/11 10:41:52;;;;;;;5.83;1.67;;;1.00;99.90;;;;;;4982387;28;20210;-92
2021/04/11 10:44:55;;;;;;;3.00;1.40;;;1.00;99.90;;;;;;4997363;28;20207;-91
2021/04/11 10:48:04;;;;;;;2.17;1.20;;;0.90;99.90;;;;;;4996820;28;20222;-89
2021/04/11 10:50:45;;;;;;;3.53;1.60;;;0.90;99.90;;;;;;4971132;28;20593;-90
2021/04/11 10:53:41;;;;;;;4.40;1.30;;;0.90;99.90;;;;;;4981843;28;20244;-91
2021/04/11 10:56:29;;;;;;;4.90;1.30;;;0.90;99.90;;;;;;4987083;28;20238;-91
2021/04/11 10:59:22;;;;;;;5.03;1.43;;;0.90;99.90;;;;;;4988949;28;20207;-92
2021/04/11 11:02:23;;;;;;;2.53;1.57;;;0.90;99.90;;;;;;4984068;28;20294;-89
2021/04/11 11:05:12;;;;;;;5.77;1.60;;;0.80;99.90;;;;;;4985943;28;20214;-93
2021/04/11 11:08:20;;;;;;;1.93;1.20;;;0.80;99.90;;;;;;4984020;28;20246;-90
2021/04/11 11:11:20;;;;;;;4.60;1.13;;;0.80;99.90;;;;;;4971829;28;20214;-91
2021/04/11 11:14:23;;;;;;;3.87;1.13;;;0.80;99.90;;;;;;4978645;28;20759;-90
2021/04/11 11:17:11;;;;;;;4.77;1.40;;;0.70;99.90;;;;;;4979286;28;20226;-91
2021/04/11 11:20:15;;;;;;;4.23;1.47;;;0.80;99.90;;;;;;4981629;28;20727;-92
2021/04/11 11:23:15;;;;;;;4.57;1.70;;;0.80;99.90;;;;;;4982075;28;20230;-91
2021/04/11 11:26:00;;;;;;;3.20;1.23;;;0.80;99.90;;;;;;4960012;28;20240;-92
2021/04/11 11:29:08;;;;;;;6.90;1.60;;;0.70;99.90;;;;;;4979370;28;20221;-91
2021/04/11 11:31:53;;;;;;;2.67;1.27;;;0.70;99.90;;;;;;4960997;28;20212;-91
2021/04/11 11:34:40;;;;;;;5.67;1.53;;;0.70;99.90;;;;;;4958940;28;20653;-92
2021/04/11 11:37:45;;;;;;;1.97;1.30;;;0.70;99.90;;;;;;4958480;29;20211;-91
2021/04/11 11:40:30;;;;;;;3.97;1.40;;;0.60;99.90;;;;;;4883396;29;20266;-92
2021/04/11 11:43:24;;;;;;;3.07;1.13;;;0.50;99.90;;;;;;4971212;28;20261;-92
2021/04/11 11:46:19;;;;;;;4.10;1.07;;;0.50;99.90;;;;;;4980379;28;20239;-91
2021/04/11 11:49:06;;;;;;;3.03;1.63;;;0.50;99.90;;;;;;4977844;28;20719;-91
2021/04/11 11:51:51;;;;;;;2.00;1.40;;;0.40;99.90;;;;;;4977659;28;20221;-92
2021/04/11 11:54:30;;;;;;;2.67;1.30;;;0.30;99.90;;;;;;4981791;28;20210;-91
2021/04/11 11:57:19;;;;;;;3.20;1.20;;;0.30;99.90;;;;;;4976661;28;20234;-91
2021/04/11 11:59:58;;;;;;;3.50;1.23;;;0.30;99.90;;;;;;4977610;28;20213;-91
2021/04/11 12:02:47;;;;;;;3.77;1.20;;;0.30;99.90;;;;;;4978532;28;20213;-91
2021/04/11 12:05:21;;;;;;;2.40;1.10;;;0.20;99.90;;;;;;4977659;28;20623;-91
2021/04/11 12:08:03;;;;;;;1.43;0.90;;;0.30;99.90;;;;;;4980050;28;20625;-91
2021/04/11 12:10:37;;;;;;;3.50;1.27;;;0.20;99.90;;;;;;4977626;28;20203;-92
2021/04/11 12:13:36;;;;;;;5.30;1.50;;;0.20;99.90;;;;;;4983362;28;20233;-91
2021/04/11 12:16:14;;;;;;;3.17;1.47;;;0.20;99.90;;;;;;4982014;28;20211;-91
2021/04/11 12:18:59;;;;;;;3.57;1.40;;;0.20;99.90;;;;;;4976832;28;20238;-92
2021/04/11 12:21:38;;;;;;;2.80;1.30;;;0.10;99.90;;;;;;4978078;28;20630;-92
2021/04/11 12:24:17;;;;;;;2.43;1.00;;;0.10;99.90;;;;;;4977840;28;20213;-92
2021/04/11 12:26:58;;;;;;;2.83;1.20;;;0.10;99.90;;;;;;4978840;28;20279;-91
2021/04/11 12:29:31;;;;;;;1.73;1.00;;;0.10;99.90;;;;;;4983768;28;20207;-90
2021/04/11 12:32:13;;;;;;;4.27;1.00;;;0.10;99.90;;;;;;4982028;28;20244;-92
2021/04/11 12:34:53;;;;;;;2.13;1.33;;;0.10;99.90;;;;;;4984981;28;20257;-92
2021/04/11 12:37:30;;;;;;;2.47;1.20;;;0.10;99.90;;;;;;4987033;28;20213;-93
2021/04/11 12:40:21;;;;;;;2.60;1.30;;;0.10;99.90;;;;;;4983483;28;20230;-93
2021/04/11 12:42:57;;;;;;;1.93;1.30;;;0.20;99.90;;;;;;4980469;28;20215;-92
2021/04/11 12:45:30;;;;;;;1.53;1.13;;;0.40;99.90;;;;;;4980898;28;20264;-90
2021/04/11 12:48:10;;;;;;;3.03;1.20;;;0.40;99.90;;;;;;4996860;28;20193;-92
2021/04/11 12:50:47;;;;;;;2.67;1.20;;;0.30;99.90;;;;;;4997545;28;20209;-90
2021/04/11 12:53:26;;;;;;;2.27;1.23;;;0.10;99.90;;;;;;4997486;28;20283;-91
2021/04/11 12:56:00;;;;;;;2.20;1.37;;;0.00;99.90;;;;;;4982262;28;20191;-92
2021/04/11 12:58:35;;;;;;;4.60;1.30;;;0.00;99.90;;;;;;4996371;28;20258;-91
2021/04/11 13:01:15;;;;;;;3.43;1.57;;;0.00;99.90;;;;;;4996808;28;20231;-91
2021/04/11 13:03:50;;;;;;;3.70;1.20;;;-0.10;99.90;;;;;;4996135;28;20207;-91
2021/04/11 13:06:28;;;;;;;2.20;1.23;;;-0.10;99.90;;;;;;4979726;28;20206;-91
2021/04/11 13:09:27;;;;;;;4.03;1.37;;;-0.20;99.90;;;;;;4982988;28;20302;-91
2021/04/11 13:12:07;;;;;;;2.33;1.20;;;-0.20;99.90;;;;;;4993054;28;20215;-91
2021/04/11 13:14:41;;;;;;;2.43;1.30;;;-0.10;99.90;;;;;;4988067;28;20632;-91
2021/04/11 13:17:23;;;;;;;3.10;1.30;;;-0.10;99.90;;;;;;4991332;28;20199;-89
2021/04/11 13:19:58;;;;;;;4.30;1.93;;;-0.10;99.90;;;;;;4983796;28;20212;-91
2021/04/11 13:22:48;;;;;;;2.90;1.80;;;-0.20;99.90;;;;;;4986996;28;20257;-92
2021/04/11 13:25:33;;;;;;;2.90;1.60;;;-0.20;99.90;;;;;;4984005;28;20212;-92
2021/04/11 13:28:12;;;;;;;2.40;1.57;;;-0.30;99.90;;;;;;4985588;28;20222;-94
2021/04/11 13:30:49;;;;;;;4.37;1.50;;;-0.20;99.90;;;;;;4985596;28;20243;-93
2021/04/11 13:33:25;;;;;;;1.60;1.33;;;-0.30;99.90;;;;;;4984277;28;20235;-91
2021/04/11 13:36:00;;;;;;;3.17;1.30;;;-0.40;99.90;;;;;;4983568;28;20270;-92
2021/04/11 13:38:59;;;;;;;3.47;1.57;;;-0.40;99.90;;;;;;4962261;29;20229;-92
2021/04/11 13:41:44;;;;;;;3.90;1.47;;;-0.30;99.90;;;;;;4962724;28;20265;-92
2021/04/11 13:44:29;;;;;;;4.00;1.43;;;-0.30;99.90;;;;;;4966138;28;20395;-92
2021/04/11 13:47:14;;;;;;;2.63;1.23;;;-0.20;99.90;;;;;;4964046;28;20206;-92
2021/04/11 13:49:54;;;;;;;2.37;1.43;;;-0.20;99.90;;;;;;4964924;28;20243;-92
2021/04/11 13:52:42;;;;;;;2.00;1.27;;;-0.10;99.90;;;;;;4964982;28;20604;-92
2021/04/11 13:55:20;;;;;;;5.13;2.00;;;-0.10;99.90;;;;;;4964365;29;20208;-91
2021/04/11 13:57:56;;;;;;;3.40;1.40;;;-0.10;99.90;;;;;;4963578;28;20217;-91
2021/04/11 14:00:49;;;;;;;4.23;2.20;;;-0.10;99.90;;;;;;4966889;28;20220;-91
2021/04/11 14:03:27;;;;;;;3.00;1.93;;;-0.10;99.90;;;;;;4967362;29;20215;-90
2021/04/11 14:06:02;;;;;;;2.70;1.87;;;0.00;99.90;;;;;;4964843;28;20217;-91
2021/04/11 14:08:39;;;;;;;3.10;1.97;;;0.00;99.90;;;;;;4961151;28;20211;-92
2021/04/11 14:11:17;;;;;;;3.07;1.97;;;0.10;99.90;;;;;;4961096;28;20650;-90
2021/04/11 14:13:56;;;;;;;3.70;1.90;;;0.10;99.90;;;;;;4960156;28;20303;-92
2021/04/11 14:16:41;;;;;;;3.00;1.70;;;0.10;99.90;;;;;;4959347;28;20286;-91